»·PEaware :: EZS314 KIFP-KBUR

EZS314 :: KIFP-KBUR

FLIGHT INFORMATION

Flight Status: Arrived
Operator:
Easy Jet Switzerland
More flights by this operator :: More flights under this callsign
Pilot: Timothy W. (9658)
Aircraft: AIRBUS A319
(A319)
More flights by this aircraft type
Origin: KIFP Laughlin/Bullhead Intl
United States
Destination: KBUR Bob Hope-Burbank
United States
More flights between these airports :: More routes between these airports
Route: +EED JANNY4
File this flight plan on PilotEdge
Remarks: Callsign TopSwiss
Altitude:
(Current/Filed)
34,000ft
Speed:
(Current/Filed)
459kts
Departed: 29-Jun-18 03:32 PM
Arrived: 29-Jun-18 04:17 PM
Distance/Time
Traveled:
196nm/0:45
Distance/Time
To Go:
Arrived

Flight Plot

Page will automatically refresh every two minutes.

Flight plan parsing failed; only flown route is shown


Map Options




Map Legend


Flown Route
Filed Route
Departure Airport
Arrival Airport
Navaid (VOR, NDB)
Fix

Horizontal Profiles

Position Reports

Time Latitude Longitude Heading Altitude Ground
Speed
29-Jun-18 14:38 35.164308 -114.556285 86 704ft 0kts
29-Jun-18 14:39 35.164308 -114.556285 86 704ft 0kts
29-Jun-18 14:40 35.164308 -114.556285 86 704ft 0kts
29-Jun-18 14:41 35.164308 -114.556285 86 704ft 0kts
29-Jun-18 14:42 35.164308 -114.556285 86 704ft 0kts
29-Jun-18 14:43 35.164308 -114.556285 86 704ft 0kts
29-Jun-18 14:44 35.164308 -114.556285 86 704ft 0kts
29-Jun-18 14:45 35.164308 -114.556285 86 704ft 0kts
29-Jun-18 14:46 35.164308 -114.556285 86 704ft 0kts
29-Jun-18 14:47 35.164308 -114.556285 86 704ft 0kts
29-Jun-18 14:48 35.164308 -114.556285 86 704ft 0kts
29-Jun-18 14:49 35.164308 -114.556285 86 704ft 0kts
29-Jun-18 14:50 35.164308 -114.556285 86 704ft 0kts
29-Jun-18 14:52 35.164308 -114.556285 86 704ft 0kts
29-Jun-18 14:53 35.164308 -114.556285 86 704ft 0kts
29-Jun-18 14:54 35.164308 -114.556285 86 704ft 0kts
29-Jun-18 14:55 35.164308 -114.556285 86 704ft 0kts
29-Jun-18 14:56 35.164308 -114.556285 86 704ft 0kts
29-Jun-18 14:56 35.164308 -114.556285 86 704ft 0kts
29-Jun-18 14:58 35.164308 -114.556285 86 704ft 0kts
29-Jun-18 14:59 35.164308 -114.556285 86 704ft 0kts
29-Jun-18 15:00 35.164308 -114.556285 86 704ft 0kts
29-Jun-18 15:01 35.164308 -114.556285 86 704ft 0kts
29-Jun-18 15:01 35.164308 -114.556285 86 704ft 0kts
29-Jun-18 15:02 35.164308 -114.556285 86 704ft 0kts
29-Jun-18 15:03 35.164308 -114.556285 86 704ft 0kts
29-Jun-18 15:04 35.164308 -114.556285 86 704ft 0kts
29-Jun-18 15:05 35.164308 -114.556285 86 704ft 0kts
29-Jun-18 15:07 35.164308 -114.556285 86 704ft 0kts
29-Jun-18 15:07 35.164308 -114.556285 86 704ft 0kts
29-Jun-18 15:08 35.164308 -114.556285 86 704ft 0kts
29-Jun-18 15:09 35.164308 -114.556285 86 704ft 0kts
29-Jun-18 15:10 35.164308 -114.556285 86 704ft 0kts
29-Jun-18 15:11 35.164308 -114.556285 86 704ft 0kts
29-Jun-18 15:12 35.164308 -114.556285 86 704ft 0kts
29-Jun-18 15:13 35.164308 -114.556285 86 704ft 0kts
29-Jun-18 15:14 35.164308 -114.556285 86 704ft 0kts
29-Jun-18 15:15 35.164308 -114.556285 86 704ft 0kts
29-Jun-18 15:16 35.164308 -114.556285 86 704ft 0kts
29-Jun-18 15:17 35.164308 -114.556285 86 704ft 0kts
29-Jun-18 15:18 35.164308 -114.556285 86 704ft 0kts
29-Jun-18 15:19 35.164308 -114.556285 86 704ft 0kts
29-Jun-18 15:20 35.164308 -114.556285 86 704ft 0kts
29-Jun-18 15:21 35.164308 -114.556285 86 704ft 0kts
29-Jun-18 15:22 35.164308 -114.556285 86 704ft 0kts
29-Jun-18 15:23 35.164308 -114.556285 86 704ft 0kts
29-Jun-18 15:24 35.164260 -114.556534 58 704ft 2kts
29-Jun-18 15:25 35.163808 -114.556777 354 704ft 0kts
29-Jun-18 15:26 35.163808 -114.556777 354 704ft 0kts
29-Jun-18 15:27 35.164709 -114.556836 357 704ft 11kts
29-Jun-18 15:28 35.165088 -114.557738 266 704ft 0kts
29-Jun-18 15:29 35.165084 -114.557808 266 704ft 3kts
29-Jun-18 15:30 35.166195 -114.559092 278 704ft 0kts
29-Jun-18 15:31 35.166201 -114.559156 276 704ft 3kts
29-Jun-18 15:32 35.152512 -114.559184 175 705ft 160kts
29-Jun-18 15:33 35.104518 -114.555229 179 3493ft 193kts
29-Jun-18 15:34 35.040374 -114.551793 183 5903ft 268kts
29-Jun-18 15:35 34.964351 -114.549688 169 9096ft 284kts
29-Jun-18 15:36 34.883864 -114.519453 164 11361ft 338kts
29-Jun-18 15:37 34.789368 -114.539489 226 12352ft 400kts
29-Jun-18 15:38 34.770037 -114.671953 270 14736ft 419kts
29-Jun-18 15:39 34.773439 -114.814780 269 16805ft 430kts
29-Jun-18 15:40 34.776255 -114.960082 270 18634ft 440kts
29-Jun-18 15:41 34.778990 -115.109115 270 20265ft 448kts
29-Jun-18 15:42 34.782274 -115.261188 271 21677ft 457kts
29-Jun-18 15:43 34.784884 -115.416081 271 21811ft 459kts
29-Jun-18 15:44 34.787117 -115.570545 271 21832ft 459kts
29-Jun-18 15:45 34.789120 -115.724374 271 21896ft 458kts
29-Jun-18 15:46 34.791337 -115.878543 272 21926ft 458kts
29-Jun-18 15:47 34.794218 -116.031518 272 21930ft 458kts
29-Jun-18 15:48 34.797103 -116.184492 271 21930ft 458kts
29-Jun-18 15:49 34.795577 -116.337255 267 21907ft 459kts
29-Jun-18 15:50 34.789650 -116.491656 268 21869ft 459kts
29-Jun-18 15:51 34.779391 -116.645601 263 21858ft 460kts
29-Jun-18 15:52 34.763776 -116.798954 264 21857ft 460kts
29-Jun-18 15:53 34.748437 -116.952556 264 21861ft 459kts
29-Jun-18 15:54 34.732702 -117.106160 265 21901ft 465kts
29-Jun-18 15:55 34.717249 -117.262206 265 21923ft 467kts
29-Jun-18 15:56 34.701475 -117.412460 265 20994ft 461kts
29-Jun-18 15:57 34.685337 -117.563097 264 18395ft 444kts
29-Jun-18 15:58 34.670545 -117.702200 264 16192ft 434kts
29-Jun-18 15:59 34.655269 -117.844493 264 14003ft 427kts
29-Jun-18 16:00 34.640041 -117.983749 263 11683ft 411kts
29-Jun-18 16:01 34.621644 -118.106413 256 9965ft 329kts
29-Jun-18 16:02 34.603895 -118.187859 256 9972ft 250kts
29-Jun-18 16:03 34.586066 -118.267902 257 9150ft 245kts
29-Jun-18 16:04 34.568289 -118.347269 257 8987ft 244kts
29-Jun-18 16:05 34.549239 -118.424439 238 8009ft 249kts
29-Jun-18 16:06 34.495174 -118.475234 211 8024ft 248kts
29-Jun-18 16:07 34.438710 -118.519175 213 8038ft 248kts
29-Jun-18 16:08 34.416479 -118.592771 261 7053ft 245kts
29-Jun-18 16:09 34.377806 -118.643740 192 7044ft 238kts
29-Jun-18 16:10 34.334254 -118.607796 102 6048ft 224kts
29-Jun-18 16:11 34.321733 -118.535402 101 5140ft 221kts
29-Jun-18 16:12 34.311153 -118.472134 101 5026ft 177kts
29-Jun-18 16:13 34.294469 -118.424207 136 4164ft 165kts
29-Jun-18 16:14 34.263513 -118.389067 136 2994ft 151kts
29-Jun-18 16:15 34.231787 -118.367183 158 1592ft 137kts
29-Jun-18 16:16 34.200337 -118.357208 165 785ft 56kts
29-Jun-18 16:17 34.198859 -118.355707 93 785ft 0kts
29-Jun-18 16:18 34.197315 -118.354201 108 785ft 14kts
29-Jun-18 16:19 34.196819 -118.352863 181 785ft 0kts
29-Jun-18 16:20 34.196819 -118.352863 181 785ft 0kts
29-Jun-18 16:21 34.196819 -118.352863 181 785ft 0kts
29-Jun-18 16:22 34.196819 -118.352863 181 785ft 0kts
29-Jun-18 16:23 34.196819 -118.352863 181 785ft 0kts
29-Jun-18 16:24 34.196819 -118.352863 181 785ft 0kts
29-Jun-18 16:25 34.196819 -118.352863 181 785ft 0kts
29-Jun-18 16:26 34.196819 -118.352863 181 785ft 0kts
29-Jun-18 16:27 34.196819 -118.352863 181 785ft 0kts
29-Jun-18 16:28 34.196819 -118.352863 181 785ft 0kts
29-Jun-18 16:29 34.196819 -118.352863 181 785ft 0kts
29-Jun-18 16:30 34.196819 -118.352863 181 785ft 0kts
29-Jun-18 16:31 34.196819 -118.352863 181 785ft 0kts
29-Jun-18 16:32 34.196819 -118.352863 181 785ft 0kts

Navigation Log

Ident Type
Flight plan parsing failed, navigation log unavailable